Bangkok (Suvarnabhumi), Thailand

06:25 AM ICT on September 02, 2014 (GMT +0700)
Bangkok (Suvarnabhumi) | Change Station
CLOSE
Current Station
Airport
Location: Bangkok (Suvarnabhumi),
Elevation: 7 ft
Nearby Weather Stations

Elev 7 ft 13.36 °N, 100.98 °E | Updated 25 minutes ago

Light Rain
Lätt regn
79 °F
Feels Like 79 °F
N
0
Vind Växlande Vind from Nordlig

Idag
High -- | Low -- °F
--% Chance of Precip.
Yesterday
High -- | Low -- °F
Precip. -- tum
6:04 AM 6:26 PM
Första kvarteret, 45% visible
Lufttryck 29.74 tum
Sikt 6.2 miles
Molnigt Few 2000 ft
Växlande molnighet 3500 ft
Mestadels molnigt 12000 ft
Daggpunkt 73 °F
Luftfuktighet 83%
Rainfall 0.00 tum
Snow Depth Not available.
UV 0 out of 12
Pollen Not available.
Air Quality Not available.
Flu Activity Not available.
METAR VTBS 012300Z 00000KT 9999 -RA FEW020 SCT035 BKN120 26/23 Q1007 NOSIG

More Conditions Fewer Conditions

Lufttryck 29.74 tum
Sikt 6.2 miles
Molnigt Few 2000 ft
Växlande molnighet 3500 ft
Mestadels molnigt 12000 ft
Daggpunkt 73 °F
Luftfuktighet 83%
Rainfall 0.00 tum
Snow Depth Not available.
UV 0 out of 12
Pollen Not available.
Air Quality Not available.
Flu Activity Not available.
METAR VTBS 012300Z 00000KT 9999 -RA FEW020 SCT035 BKN120 26/23 Q1007 NOSIG

More Conditions Fewer Conditions

10-Day Weather Forecast

Almanac

Astronomi

Sep. 02, 2014 Rise Set
Actual Time 6:04 AM ICT 6:26 PM ICT
Civil Twilight 5:43 AM ICT 6:48 PM ICT
Nautical Twilight 5:18 AM ICT 7:13 PM ICT
Astronomical Twilight 4:52 AM ICT 7:38 PM ICT
Månen 12:10 PM ICT (9/2) Ingen månnedgång
Length Of Visible Light 13h 04m
Dagens längd
12h 21m
Tomorrow will be 0m 43s shorter.
Första kvarteret, 45% of the Moon is Illuminated
Sep 1
Första kvarteret
Sep 2
Första kvarteret
Sep 8
Fullmåne
Sep 15
Sista kvarteret
Sep 24
New

Yesterday's Extremes

Country Highs Country Lows

Community

WunderPhotos

Upload Photos

1,749,430 photos uploaded!

Nearby

Snödjup

Not available.

Earthquake Activity

Stad Distance Mag. Time & Date
No recent earthquake activity has been reported nearby.
Minimum magnitude displayed is 2.5.

Coastal Water Temperatures

Plats Temperatur
No Stations Reporting

Nearby Weather Stations